sensor_id;sensor_type;location;lat;lon;timestamp;pressure;altitude;pressure_sealevel;temperature;humidity
10474;BME280;5284;50.446;7.904;2022-12-07T00:00:29;98486.50;;;2.39;100.00
10474;BME280;5284;50.446;7.904;2022-12-07T00:05:31;98486.50;;;2.39;100.00
10474;BME280;5284;50.446;7.904;2022-12-07T00:10:34;98488.19;;;2.40;100.00
10474;BME280;5284;50.446;7.904;2022-12-07T00:15:38;98493.47;;;2.40;100.00
10474;BME280;5284;50.446;7.904;2022-12-07T00:20:41;98493.75;;;2.34;100.00
10474;BME280;5284;50.446;7.904;2022-12-07T00:25:44;98482.63;;;2.29;100.00
10474;BME280;5284;50.446;7.904;2022-12-07T00:30:48;98478.69;;;2.21;100.00
10474;BME280;5284;50.446;7.904;2022-12-07T00:35:55;98481.75;;;2.13;100.00
10474;BME280;5284;50.446;7.904;2022-12-07T00:40:59;98477.59;;;2.09;100.00
10474;BME280;5284;50.446;7.904;2022-12-07T00:46:04;98461.97;;;2.06;100.00
10474;BME280;5284;50.446;7.904;2022-12-07T00:51:09;98456.72;;;2.06;100.00
10474;BME280;5284;50.446;7.904;2022-12-07T00:56:13;98457.78;;;2.02;100.00
10474;BME280;5284;50.446;7.904;2022-12-07T01:01:18;98452.53;;;2.02;100.00
10474;BME280;5284;50.446;7.904;2022-12-07T01:06:22;98454.38;;;2.00;100.00
10474;BME280;5284;50.446;7.904;2022-12-07T01:11:27;98451.69;;;2.02;100.00
10474;BME280;5284;50.446;7.904;2022-12-07T01:16:32;98453.31;;;2.04;100.00
10474;BME280;5284;50.446;7.904;2022-12-07T01:21:35;98446.22;;;2.06;100.00
10474;BME280;5284;50.446;7.904;2022-12-07T01:26:39;98459.25;;;2.08;100.00
10474;BME280;5284;50.446;7.904;2022-12-07T01:31:43;98447.75;;;2.10;100.00
10474;BME280;5284;50.446;7.904;2022-12-07T01:36:46;98450.38;;;2.10;100.00
10474;BME280;5284;50.446;7.904;2022-12-07T01:41:49;98447.56;;;2.13;100.00
10474;BME280;5284;50.446;7.904;2022-12-07T01:46:55;98438.59;;;2.17;100.00
10474;BME280;5284;50.446;7.904;2022-12-07T01:52:11;98438.59;;;2.17;100.00
10474;BME280;5284;50.446;7.904;2022-12-07T01:57:15;98440.19;;;2.20;100.00
10474;BME280;5284;50.446;7.904;2022-12-07T02:02:24;98437.47;;;2.21;100.00
10474;BME280;5284;50.446;7.904;2022-12-07T02:07:29;98434.63;;;2.26;100.00
10474;BME280;5284;50.446;7.904;2022-12-07T02:12:33;98429.34;;;2.26;100.00
10474;BME280;5284;50.446;7.904;2022-12-07T02:17:41;98416.22;;;2.26;100.00
10474;BME280;5284;50.446;7.904;2022-12-07T02:28:29;98411.59;;;2.29;100.00
10474;BME280;5284;50.446;7.904;2022-12-07T02:33:37;98412.53;;;2.28;100.00
10474;BME280;5284;50.446;7.904;2022-12-07T02:38:47;98414.25;;;2.29;100.00
10474;BME280;5284;50.446;7.904;2022-12-07T02:43:53;98411.72;;;2.28;100.00
10474;BME280;5284;50.446;7.904;2022-12-07T02:48:59;98409.75;;;2.31;100.00
10474;BME280;5284;50.446;7.904;2022-12-07T02:54:02;98414.84;;;2.34;100.00
10474;BME280;5284;50.446;7.904;2022-12-07T02:59:13;98401.69;;;2.34;100.00
10474;BME280;5284;50.446;7.904;2022-12-07T03:04:33;98408.66;;;2.35;100.00
10474;BME280;5284;50.446;7.904;2022-12-07T03:09:46;98399.81;;;2.36;100.00
10474;BME280;5284;50.446;7.904;2022-12-07T03:14:56;98407.56;;;2.39;100.00
10474;BME280;5284;50.446;7.904;2022-12-07T03:20:06;98395.19;;;2.41;100.00
10474;BME280;5284;50.446;7.904;2022-12-07T03:25:11;98399.56;;;2.41;100.00
10474;BME280;5284;50.446;7.904;2022-12-07T03:30:18;98393.47;;;2.40;100.00
10474;BME280;5284;50.446;7.904;2022-12-07T03:35:26;98394.25;;;2.42;100.00
10474;BME280;5284;50.446;7.904;2022-12-07T03:40:33;98397.63;;;2.44;100.00
10474;BME280;5284;50.446;7.904;2022-12-07T03:45:37;98391.44;;;2.45;100.00
10474;BME280;5284;50.446;7.904;2022-12-07T03:50:47;98388.81;;;2.45;100.00
10474;BME280;5284;50.446;7.904;2022-12-07T03:55:52;98380.91;;;2.45;100.00
10474;BME280;5284;50.446;7.904;2022-12-07T04:00:56;98376.59;;;2.44;100.00
10474;BME280;5284;50.446;7.904;2022-12-07T04:06:00;98379.97;;;2.46;100.00
10474;BME280;5284;50.446;7.904;2022-12-07T04:11:04;98381.75;;;2.46;100.00
10474;BME280;5284;50.446;7.904;2022-12-07T04:16:07;98379.88;;;2.48;100.00
10474;BME280;5284;50.446;7.904;2022-12-07T04:21:11;98377.34;;;2.46;100.00
10474;BME280;5284;50.446;7.904;2022-12-07T04:26:14;98379.81;;;2.49;100.00
10474;BME280;5284;50.446;7.904;2022-12-07T04:31:17;98376.13;;;2.52;100.00
10474;BME280;5284;50.446;7.904;2022-12-07T04:36:21;98375.13;;;2.54;100.00
10474;BME280;5284;50.446;7.904;2022-12-07T04:41:24;98373.44;;;2.53;100.00
10474;BME280;5284;50.446;7.904;2022-12-07T04:46:30;98380.22;;;2.57;100.00
10474;BME280;5284;50.446;7.904;2022-12-07T04:51:35;98381.75;;;2.61;100.00
10474;BME280;5284;50.446;7.904;2022-12-07T04:56:39;98381.56;;;2.64;100.00
10474;BME280;5284;50.446;7.904;2022-12-07T05:01:42;98378.09;;;2.64;100.00
10474;BME280;5284;50.446;7.904;2022-12-07T05:06:46;98372.91;;;2.62;100.00
10474;BME280;5284;50.446;7.904;2022-12-07T05:11:49;98368.41;;;2.64;100.00
10474;BME280;5284;50.446;7.904;2022-12-07T05:16:52;98376.13;;;2.67;100.00
10474;BME280;5284;50.446;7.904;2022-12-07T05:21:56;98377.16;;;2.65;100.00
10474;BME280;5284;50.446;7.904;2022-12-07T05:26:59;98384.56;;;2.58;100.00
10474;BME280;5284;50.446;7.904;2022-12-07T05:32:02;98381.75;;;2.61;100.00
10474;BME280;5284;50.446;7.904;2022-12-07T05:37:06;98374.03;;;2.58;100.00
10474;BME280;5284;50.446;7.904;2022-12-07T05:42:10;98386.25;;;2.59;100.00
10474;BME280;5284;50.446;7.904;2022-12-07T05:47:16;98374.72;;;2.62;100.00
10474;BME280;5284;50.446;7.904;2022-12-07T05:52:20;98370.28;;;2.62;100.00
10474;BME280;5284;50.446;7.904;2022-12-07T05:57:23;98371.97;;;2.63;100.00
10474;BME280;5284;50.446;7.904;2022-12-07T06:02:26;98370.09;;;2.65;100.00
10474;BME280;5284;50.446;7.904;2022-12-07T06:07:30;98378.69;;;2.69;100.00
10474;BME280;5284;50.446;7.904;2022-12-07T06:12:33;98368.94;;;2.71;100.00
10474;BME280;5284;50.446;7.904;2022-12-07T06:17:36;98379.34;;;2.72;100.00
10474;BME280;5284;50.446;7.904;2022-12-07T06:22:41;98376.66;;;2.74;100.00
10474;BME280;5284;50.446;7.904;2022-12-07T06:27:43;98378.34;;;2.75;100.00
10474;BME280;5284;50.446;7.904;2022-12-07T06:32:46;98376.47;;;2.77;100.00
10474;BME280;5284;50.446;7.904;2022-12-07T06:37:50;98386.81;;;2.80;100.00
10474;BME280;5284;50.446;7.904;2022-12-07T06:42:53;98397.28;;;2.81;100.00
10474;BME280;5284;50.446;7.904;2022-12-07T06:47:56;98385.81;;;2.82;100.00
10474;BME280;5284;50.446;7.904;2022-12-07T06:53:00;98390.78;;;2.87;100.00
10474;BME280;5284;50.446;7.904;2022-12-07T06:58:03;98390.66;;;2.90;100.00
10474;BME280;5284;50.446;7.904;2022-12-07T07:03:06;98394.81;;;2.94;100.00
10474;BME280;5284;50.446;7.904;2022-12-07T07:08:11;98393.09;;;2.93;100.00
10474;BME280;5284;50.446;7.904;2022-12-07T07:13:23;98396.41;;;2.96;100.00
10474;BME280;5284;50.446;7.904;2022-12-07T07:18:26;98404.28;;;2.96;100.00
10474;BME280;5284;50.446;7.904;2022-12-07T07:23:31;98406.84;;;2.97;100.00
10474;BME280;5284;50.446;7.904;2022-12-07T07:28:34;98410.31;;;2.98;100.00
10474;BME280;5284;50.446;7.904;2022-12-07T07:33:36;98412.94;;;2.98;100.00
10474;BME280;5284;50.446;7.904;2022-12-07T07:38:41;98415.59;;;2.98;100.00
10474;BME280;5284;50.446;7.904;2022-12-07T07:43:43;98418.22;;;2.98;100.00
10474;BME280;5284;50.446;7.904;2022-12-07T07:48:46;98416.34;;;3.00;100.00
10474;BME280;5284;50.446;7.904;2022-12-07T07:53:50;98410.91;;;3.03;100.00
10474;BME280;5284;50.446;7.904;2022-12-07T07:58:53;98421.38;;;3.04;100.00
10474;BME280;5284;50.446;7.904;2022-12-07T08:03:57;98418.03;;;3.01;100.00
10474;BME280;5284;50.446;7.904;2022-12-07T08:09:01;98424.06;;;3.03;100.00
10474;BME280;5284;50.446;7.904;2022-12-07T08:14:06;98418.47;;;3.09;100.00
10474;BME280;5284;50.446;7.904;2022-12-07T08:19:09;98412.94;;;3.13;100.00
10474;BME280;5284;50.446;7.904;2022-12-07T08:24:14;98406.28;;;3.22;100.00
10474;BME280;5284;50.446;7.904;2022-12-07T08:29:17;98418.03;;;3.46;100.00
10474;BME280;5284;50.446;7.904;2022-12-07T08:34:21;98420.75;;;3.44;100.00
10474;BME280;5284;50.446;7.904;2022-12-07T08:39:26;98415.66;;;3.41;100.00
10474;BME280;5284;50.446;7.904;2022-12-07T08:44:33;98413.97;;;3.40;100.00
10474;BME280;5284;50.446;7.904;2022-12-07T08:49:39;98419.06;;;3.43;100.00
10474;BME280;5284;50.446;7.904;2022-12-07T08:54:45;98424.06;;;3.48;100.00
10474;BME280;5284;50.446;7.904;2022-12-07T08:59:48;98424.63;;;3.53;100.00
10474;BME280;5284;50.446;7.904;2022-12-07T09:04:51;98430.31;;;3.61;100.00
10474;BME280;5284;50.446;7.904;2022-12-07T09:09:56;98426.09;;;3.72;100.00
10474;BME280;5284;50.446;7.904;2022-12-07T09:15:02;98436.63;;;3.72;100.00
10474;BME280;5284;50.446;7.904;2022-12-07T09:20:06;98428.63;;;3.74;100.00
10474;BME280;5284;50.446;7.904;2022-12-07T09:25:11;98425.47;;;3.97;100.00
10474;BME280;5284;50.446;7.904;2022-12-07T09:30:16;98434.75;;;3.88;100.00
10474;BME280;5284;50.446;7.904;2022-12-07T09:35:20;98435.06;;;3.84;100.00
10474;BME280;5284;50.446;7.904;2022-12-07T09:40:28;98432.44;;;3.84;100.00
10474;BME280;5284;50.446;7.904;2022-12-07T09:45:34;98430.16;;;3.92;100.00
10474;BME280;5284;50.446;7.904;2022-12-07T09:50:39;98423.56;;;3.99;100.00
10474;BME280;5284;50.446;7.904;2022-12-07T09:55:44;98431.78;;;4.22;100.00
10474;BME280;5284;50.446;7.904;2022-12-07T10:00:48;98422.84;;;4.25;100.00
10474;BME280;5284;50.446;7.904;2022-12-07T10:05:54;98418.75;;;4.47;100.00
10474;BME280;5284;50.446;7.904;2022-12-07T10:11:04;98408.19;;;4.47;100.00
10474;BME280;5284;50.446;7.904;2022-12-07T10:16:31;98394.78;;;4.64;100.00
10474;BME280;5284;50.446;7.904;2022-12-07T10:21:37;98391.63;;;4.85;100.00
10474;BME280;5284;50.446;7.904;2022-12-07T10:26:50;98390.63;;;5.00;100.00
10474;BME280;5284;50.446;7.904;2022-12-07T10:31:56;98389.59;;;4.76;100.00
10474;BME280;5284;50.446;7.904;2022-12-07T10:37:15;98382.16;;;4.55;100.00
10474;BME280;5284;50.446;7.904;2022-12-07T10:42:22;98380.25;;;4.57;100.00
10474;BME280;5284;50.446;7.904;2022-12-07T10:47:32;98378.34;;;4.33;100.00
10474;BME280;5284;50.446;7.904;2022-12-07T10:52:45;98382.13;;;4.29;100.00
10474;BME280;5284;50.446;7.904;2022-12-07T10:58:14;98379.97;;;4.07;100.00
10474;BME280;5284;50.446;7.904;2022-12-07T11:03:33;98374.03;;;4.04;100.00
10474;BME280;5284;50.446;7.904;2022-12-07T11:08:51;98375.06;;;4.01;100.00
10474;BME280;5284;50.446;7.904;2022-12-07T11:14:05;98361.41;;;4.09;100.00
10474;BME280;5284;50.446;7.904;2022-12-07T11:19:24;98352.91;;;4.18;100.00
10474;BME280;5284;50.446;7.904;2022-12-07T11:24:36;98349.78;;;4.39;100.00
10474;BME280;5284;50.446;7.904;2022-12-07T11:29:56;98354.69;;;4.31;100.00
10474;BME280;5284;50.446;7.904;2022-12-07T11:35:05;98352.81;;;4.33;100.00
10474;BME280;5284;50.446;7.904;2022-12-07T11:40:17;98348.88;;;4.12;100.00
10474;BME280;5284;50.446;7.904;2022-12-07T11:45:27;98348.13;;;3.96;100.00
10474;BME280;5284;50.446;7.904;2022-12-07T11:50:34;98339.00;;;3.88;100.00
10474;BME280;5284;50.446;7.904;2022-12-07T11:55:43;98333.63;;;3.75;100.00
10474;BME280;5284;50.446;7.904;2022-12-07T12:00:52;98329.38;;;3.73;100.00
10474;BME280;5284;50.446;7.904;2022-12-07T12:05:58;98321.97;;;3.65;100.00
10474;BME280;5284;50.446;7.904;2022-12-07T12:11:09;98319.50;;;3.76;100.00
10474;BME280;5284;50.446;7.904;2022-12-07T12:16:37;98315.00;;;3.92;100.00
10474;BME280;5284;50.446;7.904;2022-12-07T12:21:44;98307.34;;;3.88;100.00
10474;BME280;5284;50.446;7.904;2022-12-07T12:26:52;98306.22;;;3.78;100.00
10474;BME280;5284;50.446;7.904;2022-12-07T12:32:11;98302.34;;;3.83;100.00
10474;BME280;5284;50.446;7.904;2022-12-07T12:37:43;98292.66;;;3.70;100.00
10474;BME280;5284;50.446;7.904;2022-12-07T12:42:47;98296.72;;;3.61;100.00
10474;BME280;5284;50.446;7.904;2022-12-07T12:47:57;98293.59;;;3.83;100.00
10474;BME280;5284;50.446;7.904;2022-12-07T12:53:03;98287.31;;;4.26;100.00
10474;BME280;5284;50.446;7.904;2022-12-07T13:03:53;98278.16;;;4.57;100.00
10474;BME280;5284;50.446;7.904;2022-12-07T13:08:59;98269.69;;;4.52;100.00
10474;BME280;5284;50.446;7.904;2022-12-07T13:19:56;98271.19;;;4.30;100.00
10474;BME280;5284;50.446;7.904;2022-12-07T13:25:07;98270.38;;;4.16;100.00
10474;BME280;5284;50.446;7.904;2022-12-07T13:30:14;98262.75;;;4.11;100.00
10474;BME280;5284;50.446;7.904;2022-12-07T13:35:32;98260.31;;;4.35;100.00
10474;BME280;5284;50.446;7.904;2022-12-07T13:40:35;98258.56;;;4.74;100.00
10474;BME280;5284;50.446;7.904;2022-12-07T13:45:41;98264.59;;;4.76;100.00
10474;BME280;5284;50.446;7.904;2022-12-07T13:50:55;98268.34;;;4.59;100.00
10474;BME280;5284;50.446;7.904;2022-12-07T13:56:00;98256.28;;;4.55;100.00
10474;BME280;5284;50.446;7.904;2022-12-07T14:01:05;98250.88;;;4.45;100.00
10474;BME280;5284;50.446;7.904;2022-12-07T14:06:18;98252.88;;;4.41;100.00
10474;BME280;5284;50.446;7.904;2022-12-07T14:11:21;98258.56;;;4.21;100.00
10474;BME280;5284;50.446;7.904;2022-12-07T14:16:27;98260.66;;;4.16;100.00
10474;BME280;5284;50.446;7.904;2022-12-07T14:21:33;98264.38;;;4.00;100.00
10474;BME280;5284;50.446;7.904;2022-12-07T14:26:37;98264.22;;;3.89;100.00
10474;BME280;5284;50.446;7.904;2022-12-07T14:31:41;98258.19;;;3.73;100.00
10474;BME280;5284;50.446;7.904;2022-12-07T14:36:45;98273.28;;;3.43;100.00
10474;BME280;5284;50.446;7.904;2022-12-07T14:41:48;98249.34;;;3.18;100.00
10474;BME280;5284;50.446;7.904;2022-12-07T14:46:54;98238.88;;;3.02;100.00
10474;BME280;5284;50.446;7.904;2022-12-07T14:52:21;98236.16;;;3.04;100.00
10474;BME280;5284;50.446;7.904;2022-12-07T14:57:44;98248.38;;;3.05;100.00
10474;BME280;5284;50.446;7.904;2022-12-07T15:02:48;98243.22;;;3.03;100.00
10474;BME280;5284;50.446;7.904;2022-12-07T15:07:52;98233.31;;;2.93;100.00
10474;BME280;5284;50.446;7.904;2022-12-07T15:12:56;98227.56;;;2.87;100.00
10474;BME280;5284;50.446;7.904;2022-12-07T15:18:21;98225.31;;;2.81;100.00
10474;BME280;5284;50.446;7.904;2022-12-07T15:23:25;98232.38;;;2.80;100.00
10474;BME280;5284;50.446;7.904;2022-12-07T15:28:28;98234.31;;;2.77;100.00
10474;BME280;5284;50.446;7.904;2022-12-07T15:33:31;98234.69;;;2.71;100.00
10474;BME280;5284;50.446;7.904;2022-12-07T15:38:36;98225.16;;;2.68;100.00
10474;BME280;5284;50.446;7.904;2022-12-07T15:43:59;98220.03;;;2.67;100.00
10474;BME280;5284;50.446;7.904;2022-12-07T15:49:19;98224.34;;;2.68;100.00
10474;BME280;5284;50.446;7.904;2022-12-07T15:54:25;98221.78;;;2.66;100.00
10474;BME280;5284;50.446;7.904;2022-12-07T15:59:29;98204.97;;;2.69;100.00
10474;BME280;5284;50.446;7.904;2022-12-07T16:04:31;98210.44;;;2.66;100.00
10474;BME280;5284;50.446;7.904;2022-12-07T16:09:36;98195.56;;;2.65;100.00
10474;BME280;5284;50.446;7.904;2022-12-07T16:14:40;98202.97;;;2.58;100.00
10474;BME280;5284;50.446;7.904;2022-12-07T16:19:43;98199.09;;;2.50;100.00
10474;BME280;5284;50.446;7.904;2022-12-07T16:24:47;98195.06;;;2.44;100.00
10474;BME280;5284;50.446;7.904;2022-12-07T16:29:50;98196.19;;;2.40;100.00
10474;BME280;5284;50.446;7.904;2022-12-07T16:34:53;98201.50;;;2.39;100.00
10474;BME280;5284;50.446;7.904;2022-12-07T16:39:57;98195.56;;;2.35;100.00
10474;BME280;5284;50.446;7.904;2022-12-07T16:45:01;98187.53;;;2.38;100.00
10474;BME280;5284;50.446;7.904;2022-12-07T16:50:05;98178.78;;;2.38;100.00
10474;BME280;5284;50.446;7.904;2022-12-07T16:55:10;98173.50;;;2.38;100.00
10474;BME280;5284;50.446;7.904;2022-12-07T17:00:13;98170.97;;;2.36;100.00
10474;BME280;5284;50.446;7.904;2022-12-07T17:05:17;98166.56;;;2.37;100.00
10474;BME280;5284;50.446;7.904;2022-12-07T17:10:21;98155.09;;;2.38;100.00
10474;BME280;5284;50.446;7.904;2022-12-07T17:15:24;98156.78;;;2.39;100.00
10474;BME280;5284;50.446;7.904;2022-12-07T17:20:27;98158.22;;;2.44;100.00
10474;BME280;5284;50.446;7.904;2022-12-07T17:25:31;98164.06;;;2.49;100.00
10474;BME280;5284;50.446;7.904;2022-12-07T17:30:34;98160.38;;;2.52;100.00
10474;BME280;5284;50.446;7.904;2022-12-07T17:35:37;98159.56;;;2.51;100.00
10474;BME280;5284;50.446;7.904;2022-12-07T17:40:41;98160.38;;;2.52;100.00
10474;BME280;5284;50.446;7.904;2022-12-07T17:45:44;98155.03;;;2.53;100.00
10474;BME280;5284;50.446;7.904;2022-12-07T17:50:46;98154.09;;;2.54;100.00
10474;BME280;5284;50.446;7.904;2022-12-07T17:56:08;98143.31;;;2.59;100.00
10474;BME280;5284;50.446;7.904;2022-12-07T18:01:29;98151.09;;;2.60;100.00
10474;BME280;5284;50.446;7.904;2022-12-07T18:06:37;98152.78;;;2.61;100.00
10474;BME280;5284;50.446;7.904;2022-12-07T18:11:41;98143.22;;;2.60;100.00
10474;BME280;5284;50.446;7.904;2022-12-07T18:16:44;98144.72;;;2.64;100.00
10474;BME280;5284;50.446;7.904;2022-12-07T18:21:47;98129.03;;;2.63;100.00
10474;BME280;5284;50.446;7.904;2022-12-07T18:26:51;98128.09;;;2.64;100.00
10474;BME280;5284;50.446;7.904;2022-12-07T18:31:54;98125.34;;;2.65;100.00
10474;BME280;5284;50.446;7.904;2022-12-07T18:36:57;98124.22;;;2.69;100.00
10474;BME280;5284;50.446;7.904;2022-12-07T18:42:01;98117.25;;;2.68;100.00
10474;BME280;5284;50.446;7.904;2022-12-07T18:47:05;98113.63;;;2.71;100.00
10474;BME280;5284;50.446;7.904;2022-12-07T18:52:07;98112.59;;;2.73;100.00
10474;BME280;5284;50.446;7.904;2022-12-07T18:57:12;98117.75;;;2.75;100.00
10474;BME280;5284;50.446;7.904;2022-12-07T19:02:15;98114.28;;;2.74;100.00
10474;BME280;5284;50.446;7.904;2022-12-07T19:07:19;98108.09;;;2.75;100.00
10474;BME280;5284;50.446;7.904;2022-12-07T19:12:23;98104.50;;;2.76;100.00
10474;BME280;5284;50.446;7.904;2022-12-07T19:17:28;98087.84;;;2.76;100.00
10474;BME280;5284;50.446;7.904;2022-12-07T19:22:31;98101.69;;;2.79;100.00
10474;BME280;5284;50.446;7.904;2022-12-07T19:27:35;98103.38;;;2.80;100.00
10474;BME280;5284;50.446;7.904;2022-12-07T19:32:38;98105.16;;;2.80;100.00
10474;BME280;5284;50.446;7.904;2022-12-07T19:37:41;98100.75;;;2.80;100.00
10474;BME280;5284;50.446;7.904;2022-12-07T19:42:45;98098.88;;;2.82;100.00
10474;BME280;5284;50.446;7.904;2022-12-07T19:47:47;98096.13;;;2.84;100.00
10474;BME280;5284;50.446;7.904;2022-12-07T19:52:50;98086.44;;;2.84;100.00
10474;BME280;5284;50.446;7.904;2022-12-07T19:57:54;98084.00;;;2.81;100.00
10474;BME280;5284;50.446;7.904;2022-12-07T20:02:57;98081.28;;;2.83;100.00
10474;BME280;5284;50.446;7.904;2022-12-07T20:08:00;98072.72;;;2.79;100.00
10474;BME280;5284;50.446;7.904;2022-12-07T20:13:05;98066.34;;;2.83;100.00
10474;BME280;5284;50.446;7.904;2022-12-07T20:18:25;98068.09;;;2.83;100.00
10474;BME280;5284;50.446;7.904;2022-12-07T20:23:28;98055.81;;;2.83;100.00
10474;BME280;5284;50.446;7.904;2022-12-07T20:28:33;98053.25;;;2.82;100.00
10474;BME280;5284;50.446;7.904;2022-12-07T20:33:36;98058.53;;;2.82;100.00
10474;BME280;5284;50.446;7.904;2022-12-07T20:38:39;98058.31;;;2.85;100.00
10474;BME280;5284;50.446;7.904;2022-12-07T20:43:43;98058.31;;;2.85;100.00
10474;BME280;5284;50.446;7.904;2022-12-07T20:48:46;98053.06;;;2.85;100.00
10474;BME280;5284;50.446;7.904;2022-12-07T20:53:49;98047.03;;;2.83;100.00
10474;BME280;5284;50.446;7.904;2022-12-07T20:58:54;98049.69;;;2.83;100.00
10474;BME280;5284;50.446;7.904;2022-12-07T21:03:58;98042.72;;;2.82;100.00
10474;BME280;5284;50.446;7.904;2022-12-07T21:09:01;98028.72;;;2.81;100.00
10474;BME280;5284;50.446;7.904;2022-12-07T21:14:06;98026.84;;;2.83;100.00
10474;BME280;5284;50.446;7.904;2022-12-07T21:19:09;98033.06;;;2.82;100.00
10474;BME280;5284;50.446;7.904;2022-12-07T21:24:12;98021.66;;;2.82;100.00
10474;BME280;5284;50.446;7.904;2022-12-07T21:29:16;98031.91;;;2.86;100.00
10474;BME280;5284;50.446;7.904;2022-12-07T21:34:39;98016.00;;;2.88;100.00
10474;BME280;5284;50.446;7.904;2022-12-07T21:39:42;98011.69;;;2.87;100.00
10474;BME280;5284;50.446;7.904;2022-12-07T21:44:46;98014.31;;;2.87;100.00
10474;BME280;5284;50.446;7.904;2022-12-07T21:49:49;98015.94;;;2.89;100.00
10474;BME280;5284;50.446;7.904;2022-12-07T21:54:51;98004.53;;;2.89;100.00
10474;BME280;5284;50.446;7.904;2022-12-07T21:59:56;98005.66;;;2.85;100.00
10474;BME280;5284;50.446;7.904;2022-12-07T22:04:59;98004.53;;;2.89;100.00
10474;BME280;5284;50.446;7.904;2022-12-07T22:10:03;97994.88;;;2.89;100.00
10474;BME280;5284;50.446;7.904;2022-12-07T22:15:08;98005.31;;;2.91;100.00
10474;BME280;5284;50.446;7.904;2022-12-07T22:20:11;97994.88;;;2.89;100.00
10474;BME280;5284;50.446;7.904;2022-12-07T22:25:15;97993.19;;;2.88;100.00
10474;BME280;5284;50.446;7.904;2022-12-07T22:30:19;97994.88;;;2.89;100.00
10474;BME280;5284;50.446;7.904;2022-12-07T22:35:22;97993.91;;;2.90;100.00
10474;BME280;5284;50.446;7.904;2022-12-07T22:40:25;97983.59;;;2.87;100.00
10474;BME280;5284;50.446;7.904;2022-12-07T22:45:29;97983.66;;;2.86;100.00
10474;BME280;5284;50.446;7.904;2022-12-07T22:50:32;97990.00;;;2.83;100.00
10474;BME280;5284;50.446;7.904;2022-12-07T22:55:37;97975.97;;;2.83;100.00
10474;BME280;5284;50.446;7.904;2022-12-07T23:00:41;97964.81;;;2.79;100.00
10474;BME280;5284;50.446;7.904;2022-12-07T23:05:47;97955.22;;;2.78;100.00
10474;BME280;5284;50.446;7.904;2022-12-07T23:10:50;97953.34;;;2.80;100.00
10474;BME280;5284;50.446;7.904;2022-12-07T23:15:54;97945.44;;;2.80;100.00
10474;BME280;5284;50.446;7.904;2022-12-07T23:20:57;97942.88;;;2.79;100.00
10474;BME280;5284;50.446;7.904;2022-12-07T23:26:04;97942.16;;;2.77;100.00
10474;BME280;5284;50.446;7.904;2022-12-07T23:31:11;97942.16;;;2.77;100.00
10474;BME280;5284;50.446;7.904;2022-12-07T23:36:15;97942.25;;;2.75;100.00
10474;BME280;5284;50.446;7.904;2022-12-07T23:41:20;97941.31;;;2.76;100.00
10474;BME280;5284;50.446;7.904;2022-12-07T23:46:26;97936.88;;;2.77;100.00
10474;BME280;5284;50.446;7.904;2022-12-07T23:51:29;97928.78;;;2.80;100.00
10474;BME280;5284;50.446;7.904;2022-12-07T23:56:33;97923.53;;;2.80;100.00
